Météo Nord-Pas-de-Calais   La météo au plus près de chez vous

Station météorologique

Observations météo à Rocroi (08367)

08367002 382 m Dernier relevé à 14:54
23.1°C
Humidité 68 % Vent 19.8 km/h

Journée consultée

Vendredi 4 Septembre 2026

Synthèse de la journée

Périodes de référence en UTC

Température maximale

23.8°C

à 14:42

06h 06h

Température minimale

17.8°C

à 07:00

18h 18h

Rafale maximale

39 km/h

à 12:54

00h 00h

Précipitations

0 mm

Cumul quotidien

06h 06h

Graphiques de la journée

Heure locale Réduire

Données détaillées

Relevés météo

Pas de 6 minutes Afficher les relevés infra-horaires
Relevés météo détaillés à Rocroi pour le Vendredi 4 Septembre 2026
Heure Température °C Point de rosée °C Humidité % Vent moyen (raf.), km/h Précipitations mm
14:54 23.1 °C 16.2 °C 65 % 19 km/h (39 km/h) 0 mm0 mm
14:48 23.2 °C 16.5 °C 66 % 18 km/h (39 km/h) 0 mm0 mm
14:42 23.8 °C 17.1 °C 66 % 18 km/h (33 km/h) 0 mm0 mm
14:36 23.7 °C 17 °C 66 % 19 km/h (37 km/h) 0 mm0 mm
14:30 23.3 °C 16.6 °C 66 % 18 km/h (37 km/h) 0 mm0 mm
14:24 23.1 °C 17.1 °C 69 % 17 km/h (35 km/h) 0 mm0 mm
14:18 22.4 °C 16.4 °C 69 % 20 km/h (36 km/h) 0 mm0 mm
14:12 22.5 °C 16.3 °C 68 % 20 km/h (36 km/h) 0 mm0 mm
14:06 22.7 °C 16.3 °C 67 % 17 km/h (36 km/h) 0 mm0 mm
14:00 22.9 °C 16.7 °C 68 % 17 km/h (31 km/h) 0 mm0 mm
13:54 22.5 °C 16.3 °C 68 % 20 km/h (32 km/h) 0 mm0 mm
13:48 22.5 °C 16.3 °C 68 % 20 km/h (33 km/h) 0 mm0 mm
13:42 22.6 °C 16.2 °C 67 % 21 km/h (33 km/h) 0 mm0 mm
13:36 23 °C 16.3 °C 66 % 19 km/h (33 km/h) 0 mm0 mm
13:30 23.3 °C 16.8 °C 67 % 18 km/h (30 km/h) 0 mm0 mm
13:24 23.1 °C 16.6 °C 67 % 19 km/h (34 km/h) 0 mm0 mm
13:18 23.1 °C 16.2 °C 65 % 19 km/h (34 km/h) 0 mm0 mm
13:12 23.1 °C 16.6 °C 67 % 18 km/h (33 km/h) 0 mm0 mm
13:06 22.9 °C 16.2 °C 66 % 21 km/h (39 km/h) 0 mm0 mm
13:00 22.7 °C 16 °C 66 % 21 km/h (39 km/h) 0 mm0 mm
12:54 23 °C 16.1 °C 65 % 18 km/h (39 km/h) 0 mm0 mm
12:48 22.7 °C 16.7 °C 69 % 15 km/h (30 km/h) 0 mm0 mm
12:42 22.3 °C 16.6 °C 70 % 18 km/h (37 km/h) 0 mm0 mm
12:36 22 °C 16 °C 69 % 20 km/h (37 km/h) 0 mm0 mm
12:30 22.5 °C 16.1 °C 67 % 19 km/h (36 km/h) 0 mm0 mm
12:24 23.4 °C 16.9 °C 67 % 19 km/h (32 km/h) 0 mm0 mm
12:18 23 °C 16.8 °C 68 % 19 km/h (32 km/h) 0 mm0 mm
12:12 21.9 °C 16.8 °C 73 % 16 km/h (31 km/h) 0 mm0 mm
12:06 21.9 °C 16.8 °C 73 % 15 km/h (28 km/h) 0 mm0 mm
12:00 22.1 °C 17 °C 73 % 16 km/h (32 km/h) 0 mm0 mm
11:54 22.3 °C 17.4 °C 74 % 17 km/h (32 km/h) 0 mm0 mm
11:48 21.4 °C 16.8 °C 75 % 17 km/h (31 km/h) 0 mm0 mm
11:42 21.5 °C 17.1 °C 76 % 17 km/h (31 km/h) 0 mm0 mm
11:36 21.5 °C 17.3 °C 77 % 21 km/h (35 km/h) 0 mm0 mm
11:30 21.4 °C 17 °C 76 % 19 km/h (35 km/h) 0 mm0 mm
11:24 21.5 °C 17.7 °C 79 % 19 km/h (31 km/h) 0 mm0 mm
11:18 21.2 °C 16.8 °C 76 % 18 km/h (30 km/h) 0 mm0 mm
11:12 21.6 °C 17.4 °C 77 % 19 km/h (33 km/h) 0 mm0 mm
11:06 21.5 °C 17.3 °C 77 % 22 km/h (37 km/h) 0 mm0 mm
11:00 21.8 °C 17.8 °C 78 % 21 km/h (37 km/h) 0 mm0 mm
10:54 21.6 °C 17.8 °C 79 % 20 km/h (32 km/h) 0 mm0 mm
10:48 21.6 °C 18.4 °C 82 % 19 km/h (31 km/h) 0 mm0 mm
10:42 21.2 °C 18.2 °C 83 % 18 km/h (31 km/h) 0 mm0 mm
10:36 21.1 °C 18.5 °C 85 % 19 km/h (31 km/h) 0 mm0 mm
10:30 20.7 °C 18.5 °C 87 % 21 km/h (30 km/h) 0 mm0 mm
10:24 20.3 °C 18.4 °C 89 % 19 km/h (29 km/h) 0 mm0 mm
10:18 19.7 °C 17.8 °C 89 % 18 km/h (28 km/h) 0 mm0 mm
10:12 19.7 °C 17.8 °C 89 % 19 km/h (33 km/h) 0 mm0 mm
10:06 19.9 °C 18 °C 89 % 18 km/h (27 km/h) 0 mm0 mm
10:00 19.8 °C 17.9 °C 89 % 16 km/h (25 km/h) 0 mm0 mm
09:54 19.7 °C 17.8 °C 89 % 15 km/h (24 km/h) 0 mm0 mm
09:48 19.6 °C 17.9 °C 90 % 14 km/h (21 km/h) 0 mm0 mm
09:42 19.6 °C 17.9 °C 90 % 14 km/h (23 km/h) 0 mm0 mm
09:36 19.6 °C 17.9 °C 90 % 14 km/h (24 km/h) 0 mm0 mm
09:30 19.4 °C 17.5 °C 89 % 14 km/h (24 km/h) 0 mm0 mm
09:24 19.3 °C 17.6 °C 90 % 12 km/h (22 km/h) 0 mm0 mm
09:18 19.3 °C 17.8 °C 91 % 12 km/h (18 km/h) 0 mm0 mm
09:12 19.2 °C 17.7 °C 91 % 14 km/h (21 km/h) 0 mm0 mm
09:06 19.1 °C 17.6 °C 91 % 13 km/h (21 km/h) 0 mm0 mm
09:00 19 °C 17.5 °C 91 % 12 km/h (19 km/h) 0 mm0 mm
08:54 18.9 °C 17.6 °C 92 % 12 km/h (19 km/h) 0 mm0 mm
08:48 18.8 °C 17.3 °C 91 % 12 km/h (18 km/h) 0 mm0 mm
08:42 18.8 °C 17.5 °C 92 % 10 km/h (18 km/h) 0 mm0 mm
08:36 18.7 °C 17.4 °C 92 % 12 km/h (20 km/h) 0 mm0 mm
08:30 18.6 °C 17.3 °C 92 % 12 km/h (20 km/h) 0 mm0 mm
08:24 18.5 °C 17.3 °C 93 % 12 km/h (19 km/h) 0 mm0 mm
08:18 18.5 °C 17.3 °C 93 % 12 km/h (21 km/h) 0 mm0 mm
08:12 18.4 °C 17.1 °C 92 % 13 km/h (21 km/h) 0 mm0 mm
08:06 18.3 °C 17.1 °C 93 % 13 km/h (19 km/h) 0 mm0 mm
08:00 18.3 °C 17.1 °C 93 % 13 km/h (19 km/h) 0 mm0 mm
07:54 18.2 °C 17 °C 93 % 12 km/h (21 km/h) 0 mm0 mm
07:48 18.1 °C 17.1 °C 94 % 12 km/h (21 km/h) 0 mm0 mm
07:42 18 °C 17 °C 94 % 12 km/h (18 km/h) 0 mm0 mm
07:36 18 °C 17 °C 94 % 12 km/h (17 km/h) 0 mm0 mm
07:30 17.9 °C 16.9 °C 94 % 12 km/h (17 km/h) 0 mm0 mm
07:24 17.9 °C 16.9 °C 94 % 12 km/h (17 km/h) 0 mm0 mm
07:18 17.9 °C 16.9 °C 94 % 10 km/h (15 km/h) 0 mm0 mm
07:12 17.8 °C 16.8 °C 94 % 10 km/h (15 km/h) 0 mm0 mm
07:06 17.8 °C 16.8 °C 94 % 9 km/h (13 km/h) 0 mm0 mm
07:00 17.8 °C 16.7 °C 93 % 8 km/h (13 km/h) 0 mm0 mm
06:54 17.9 °C 16.6 °C 92 % 9 km/h (13 km/h) 0 mm0 mm
06:48 18 °C 16.7 °C 92 % 8 km/h (12 km/h) 0 mm0 mm
06:42 18.1 °C 16.8 °C 92 % 8 km/h (11 km/h) 0 mm0 mm
06:36 18.2 °C 16.9 °C 92 % 8 km/h (12 km/h) 0 mm0 mm
06:30 18.3 °C 17 °C 92 % 8 km/h (12 km/h) 0 mm0 mm
06:24 18.3 °C 17 °C 92 % 7 km/h (10 km/h) 0 mm0 mm
06:18 18.3 °C 17 °C 92 % 7 km/h (10 km/h) 0 mm0 mm
06:12 18.4 °C 17.1 °C 92 % 8 km/h (12 km/h) 0 mm0 mm
06:06 18.4 °C 17.1 °C 92 % 8 km/h (11 km/h) 0 mm0 mm
06:00 18.4 °C 17.2 °C 93 % 8 km/h (11 km/h) 0 mm0 mm
05:54 18.4 °C 17.2 °C 93 % 7 km/h (11 km/h) 0 mm0 mm
05:48 18.3 °C 17.1 °C 93 % 8 km/h (12 km/h) 0 mm0 mm
05:42 18.3 °C 17.1 °C 93 % 8 km/h (12 km/h) 0 mm0 mm
05:36 18.2 °C 17 °C 93 % 8 km/h (13 km/h) 0 mm0 mm
05:30 18.2 °C 17 °C 93 % 9 km/h (14 km/h) 0 mm0 mm
05:24 18.2 °C 17 °C 93 % 10 km/h (15 km/h) 0 mm0 mm
05:18 18.2 °C 17 °C 93 % 10 km/h (16 km/h) 0 mm0 mm
05:12 18.2 °C 17 °C 93 % 11 km/h (18 km/h) 0 mm0 mm
05:06 18.3 °C 17 °C 92 % 10 km/h (17 km/h) 0 mm0 mm
05:00 18.4 °C 17.1 °C 92 % 9 km/h (14 km/h) 0 mm0 mm
04:54 18.6 °C 17.1 °C 91 % 9 km/h (14 km/h) 0 mm0 mm
04:48 18.7 °C 17.2 °C 91 % 10 km/h (16 km/h) 0 mm0 mm
04:42 18.8 °C 17.3 °C 91 % 11 km/h (18 km/h) 0 mm0 mm
04:36 18.9 °C 17.4 °C 91 % 11 km/h (18 km/h) 0 mm0 mm
04:30 18.9 °C 17.4 °C 91 % 11 km/h (17 km/h) 0 mm0 mm
04:24 18.9 °C 17.4 °C 91 % 11 km/h (16 km/h) 0 mm0 mm
04:18 18.9 °C 17.4 °C 91 % 10 km/h (16 km/h) 0 mm0 mm
04:12 18.9 °C 17.4 °C 91 % 10 km/h (15 km/h) 0 mm0 mm
04:06 18.9 °C 17.4 °C 91 % 10 km/h (15 km/h) 0 mm0 mm
04:00 18.9 °C 17.4 °C 91 % 10 km/h (16 km/h) 0 mm0 mm
03:54 18.9 °C 17.4 °C 91 % 11 km/h (16 km/h) 0 mm0 mm
03:48 18.9 °C 17.4 °C 91 % 10 km/h (16 km/h) 0 mm0 mm
03:42 18.9 °C 17.6 °C 92 % 11 km/h (16 km/h) 0 mm0 mm
03:36 18.9 °C 17.6 °C 92 % 12 km/h (17 km/h) 0 mm0 mm
03:30 18.9 °C 17.6 °C 92 % 12 km/h (17 km/h) 0 mm0 mm
03:24 18.9 °C 17.6 °C 92 % 12 km/h (16 km/h) 0 mm0 mm
03:18 18.9 °C 17.6 °C 92 % 12 km/h (17 km/h) 0 mm0 mm
03:12 18.8 °C 17.5 °C 92 % 12 km/h (17 km/h) 0 mm0 mm
03:06 18.7 °C 17.4 °C 92 % 12 km/h (17 km/h) 0 mm0 mm
03:00 18.7 °C 17.4 °C 92 % 12 km/h (17 km/h) 0 mm0 mm
02:54 18.7 °C 17.4 °C 92 % 11 km/h (17 km/h) 0 mm0 mm
02:48 18.7 °C 17.4 °C 92 % 10 km/h (15 km/h) 0 mm0 mm
02:42 18.8 °C 17.5 °C 92 % 10 km/h (15 km/h) 0 mm0 mm
02:36 18.8 °C 17.5 °C 92 % 9 km/h (14 km/h) 0 mm0 mm
02:30 18.8 °C 17.3 °C 91 % 8 km/h (14 km/h) 0 mm0 mm
02:24 18.9 °C 17.4 °C 91 % 8 km/h (12 km/h) 0 mm0 mm
02:18 18.8 °C 17.3 °C 91 % 6 km/h (11 km/h) 0 mm0 mm
02:12 18.9 °C 17.2 °C 90 % 7 km/h (12 km/h) 0 mm0 mm
02:06 19 °C 17.1 °C 89 % 7 km/h (12 km/h) 0 mm0 mm
02:00 19.1 °C 17.2 °C 89 % 8 km/h (11 km/h) 0 mm0 mm
01:54 19.2 °C 17.3 °C 89 % 8 km/h (14 km/h) 0 mm0 mm
01:48 19.3 °C 17.3 °C 88 % 7 km/h (15 km/h) 0 mm0 mm
01:42 19.4 °C 17.4 °C 88 % 8 km/h (15 km/h) 0 mm0 mm
01:36 19.4 °C 17.4 °C 88 % 8 km/h (15 km/h) 0 mm0 mm
01:30 19.4 °C 17.4 °C 88 % 9 km/h (17 km/h) 0 mm0 mm
01:24 19.4 °C 17.4 °C 88 % 10 km/h (19 km/h) 0 mm0 mm
01:18 19.4 °C 17.4 °C 88 % 11 km/h (19 km/h) 0 mm0 mm
01:12 19.4 °C 17.4 °C 88 % 11 km/h (18 km/h) 0 mm0 mm
01:06 19.5 °C 17.3 °C 87 % 11 km/h (21 km/h) 0 mm0 mm
01:00 19.5 °C 17.3 °C 87 % 10 km/h (21 km/h) 0 mm0 mm
00:54 19.5 °C 17.3 °C 87 % 10 km/h (17 km/h) 0 mm0 mm
00:48 19.5 °C 17.3 °C 87 % 11 km/h (19 km/h) 0 mm0 mm
00:42 19.5 °C 17.3 °C 87 % 11 km/h (19 km/h) 0 mm0 mm
00:36 19.5 °C 17.3 °C 87 % 10 km/h (16 km/h) 0 mm0 mm
00:30 19.5 °C 17.3 °C 87 % 12 km/h (19 km/h) 0 mm0 mm
00:24 19.5 °C 17.3 °C 87 % 11 km/h (18 km/h) 0 mm0 mm
00:18 19.5 °C 17.3 °C 87 % 10 km/h (17 km/h) 0 mm0 mm
00:12 19.4 °C 17.2 °C 87 % 10 km/h (17 km/h) 0 mm0 mm
00:06 19.4 °C 17.4 °C 88 % 10 km/h (18 km/h) 0 mm0 mm
00:00 19.3 °C 17.3 °C 88 % 10 km/h (18 km/h) 0 mm0 mm

Données via Météo-France

Relevés météo à Rocroi

Cette page rassemble les observations de la station de Rocroi : température, humidité, vent, précipitations et pression atmosphérique. Les graphiques facilitent le suivi de la journée, tandis que le tableau donne accès aux mesures horaires et infra-horaires disponibles.

Pour replacer ces mesures dans leur contexte, consultez la climatologie de Rocroi ainsi que ses normales et records. Retrouvez aussi la carte des observations météo en temps réel.